createdAt,value
2019-06-26T00:00:31.442Z,71.92
2019-06-26T00:01:11.931Z,72.31
2019-06-26T00:02:32.873Z,73.57
2019-06-26T00:03:13.335Z,72.89
2019-06-26T00:03:53.821Z,73.86
2019-06-26T00:04:34.283Z,73.28
2019-06-26T00:05:14.778Z,73.28
2019-06-26T00:05:55.278Z,73.57
2019-06-26T00:06:35.762Z,72.8
2019-06-26T00:07:16.257Z,72.89
2019-06-26T00:07:56.730Z,73.18
2019-06-26T00:08:37.222Z,73.38
2019-06-26T00:09:17.696Z,73.57
2019-06-26T00:09:58.182Z,73.47
2019-06-26T00:10:38.652Z,73.08
2019-06-26T00:11:19.263Z,73.28
2019-06-26T00:11:59.670Z,74.16
2019-06-26T00:12:40.165Z,72.7
2019-06-26T00:13:25.946Z,73.57
2019-06-26T00:14:01.112Z,75.03
2019-06-26T00:14:41.586Z,75.32
2019-06-26T00:15:22.080Z,73.77
2019-06-26T00:16:02.563Z,74.06
2019-06-26T00:17:23.644Z,73.96
2019-06-26T00:18:04.113Z,73.96
2019-06-26T00:18:44.645Z,73.47
2019-06-26T00:20:05.579Z,73.38
2019-06-26T00:20:46.070Z,73.38
2019-06-26T00:21:26.548Z,72.99
2019-06-26T00:22:07.038Z,72.99
2019-06-26T00:22:47.527Z,73.38
2019-06-26T00:23:28.022Z,73.57
2019-06-26T00:24:08.525Z,73.47
2019-06-26T00:24:49.020Z,73.63
2019-06-26T00:25:29.514Z,73.38
2019-06-26T00:26:09.984Z,73.96
2019-06-26T00:26:50.471Z,73.73
2019-06-26T00:27:30.950Z,72.99
2019-06-26T00:28:11.436Z,72.7
2019-06-26T00:28:51.911Z,72.66
2019-06-26T00:29:32.399Z,73.28
2019-06-26T00:30:12.903Z,73.38
2019-06-26T00:30:53.378Z,73.05
2019-06-26T00:31:33.873Z,72.76
2019-06-26T00:32:14.341Z,72.47
2019-06-26T00:32:54.830Z,72.17
2019-06-26T00:33:35.300Z,72.8
2019-06-26T00:34:15.773Z,73.24
2019-06-26T00:34:56.269Z,71.88
2019-06-26T00:35:36.777Z,71.4
2019-06-26T00:36:17.239Z,71.4
2019-06-26T00:36:57.708Z,72.31
2019-06-26T00:37:38.219Z,72.17
2019-06-26T00:38:18.706Z,72.11
2019-06-26T00:38:59.182Z,72.56
2019-06-26T00:39:39.669Z,72.21
2019-06-26T00:40:20.154Z,72.47
2019-06-26T00:41:00.632Z,72.47
2019-06-26T00:41:41.121Z,73.15
2019-06-26T00:42:21.594Z,73.63
2019-06-26T00:43:02.079Z,72.66
2019-06-26T00:43:42.942Z,72.47
2019-06-26T00:45:03.521Z,72.27
2019-06-26T00:45:44.019Z,73.44
2019-06-26T00:46:24.511Z,72.96
2019-06-26T00:47:04.992Z,73.05
2019-06-26T00:47:45.471Z,73.05
2019-06-26T00:48:25.953Z,73.63
2019-06-26T00:49:06.432Z,73.63
2019-06-26T00:49:46.937Z,73.34
2019-06-26T00:50:27.424Z,73.34
2019-06-26T00:51:07.924Z,73.54
2019-06-26T00:51:48.412Z,73.73
2019-06-26T00:52:28.909Z,73.54
2019-06-26T00:53:09.415Z,73.15
2019-06-26T00:53:49.890Z,73.73
2019-06-26T00:54:30.393Z,73.83
2019-06-26T00:55:10.866Z,73.73
2019-06-26T00:55:51.360Z,73.83
2019-06-26T00:56:31.829Z,73.83
2019-06-26T00:57:12.310Z,73.73
2019-06-26T00:57:52.800Z,74.41
2019-06-26T00:58:33.312Z,74.22
2019-06-26T00:59:54.274Z,74.41
2019-06-26T01:00:34.773Z,74.41
2019-06-26T01:01:15.262Z,74.51
2019-06-26T01:01:55.861Z,74.9
2019-06-26T01:02:36.214Z,74.99
2019-06-26T01:03:16.701Z,75.68
2019-06-26T01:03:57.185Z,77.04
2019-06-26T01:04:37.676Z,76.84
2019-06-26T01:05:18.177Z,75.45
2019-06-26T01:05:58.649Z,75.35
2019-06-26T01:06:39.150Z,76.03
2019-06-26T01:07:19.619Z,76.51
2019-06-26T01:08:00.114Z,77.29
2019-06-26T01:08:40.596Z,75.45
2019-06-26T01:10:01.539Z,76.71
2019-06-26T01:10:42.081Z,76.12
2019-06-26T01:11:22.512Z,76.32
2019-06-26T01:12:03.002Z,77.39
2019-06-26T01:12:43.482Z,76.71
2019-06-26T01:13:23.963Z,77.48
2019-06-26T01:14:04.455Z,77.68
2019-06-26T01:14:44.956Z,76.32
2019-06-26T01:15:25.437Z,76.12
2019-06-26T01:16:05.932Z,77
2019-06-26T01:16:46.431Z,76.9
2019-06-26T01:17:26.923Z,76.03
2019-06-26T01:18:07.410Z,76.9
2019-06-26T01:18:47.892Z,76.81
2019-06-26T01:19:28.374Z,77.68
2019-06-26T01:20:08.845Z,77.48
2019-06-26T01:20:49.337Z,77.39
2019-06-26T01:21:29.831Z,76.61
2019-06-26T01:22:10.316Z,77.58
2019-06-26T01:22:50.803Z,78.07
2019-06-26T01:23:31.297Z,77.29
2019-06-26T01:24:11.749Z,77.48
2019-06-26T01:24:52.242Z,76.32
2019-06-26T01:25:32.681Z,77.29
2019-06-26T01:26:13.171Z,77.97
2019-06-26T01:27:34.092Z,77.87
2019-06-26T01:28:14.572Z,76.61
2019-06-26T01:28:55.031Z,78.36
2019-06-26T01:29:35.570Z,77.68
2019-06-26T01:30:16.076Z,77.39
2019-06-26T01:30:56.559Z,78.52
2019-06-26T01:31:37.077Z,78.81
2019-06-26T01:32:17.516Z,78.81
2019-06-26T01:32:58.015Z,79.59
2019-06-26T01:33:38.504Z,78.33
2019-06-26T01:34:59.490Z,79.1
2019-06-26T01:35:39.988Z,79.97
2019-06-26T01:36:20.453Z,80.17
2019-06-26T01:37:00.944Z,81.14
2019-06-26T01:37:41.432Z,80.27
2019-06-26T01:38:21.902Z,80.27
2019-06-26T01:39:02.395Z,80.17
2019-06-26T01:39:42.868Z,80.07
2019-06-26T01:40:23.380Z,81.73
2019-06-26T01:41:03.829Z,81.04
2019-06-26T01:42:24.822Z,80.85
2019-06-26T01:43:05.313Z,81.53
2019-06-26T01:43:45.808Z,81.82
2019-06-26T01:44:26.302Z,81.53
2019-06-26T01:45:06.783Z,81.53
2019-06-26T01:45:47.266Z,81.43
2019-06-26T01:46:27.746Z,81.34
2019-06-26T01:47:08.240Z,81.82
2019-06-26T01:47:48.725Z,82.31
2019-06-26T01:48:29.222Z,82.5
2019-06-26T01:49:09.716Z,81.34
2019-06-26T01:49:50.200Z,81.88
2019-06-26T01:50:30.688Z,81.39
2019-06-26T01:51:11.180Z,81.34
2019-06-26T01:52:32.148Z,82.99
2019-06-26T01:53:12.638Z,83.96
2019-06-26T01:53:53.127Z,84.11
2019-06-26T01:54:33.588Z,82.46
2019-06-26T01:55:14.081Z,82.27
2019-06-26T01:55:54.591Z,81.78
2019-06-26T01:56:35.072Z,81.59
2019-06-26T01:57:15.582Z,81.98
2019-06-26T01:57:56.061Z,81.49
2019-06-26T01:58:36.549Z,82.27
2019-06-26T01:59:17.046Z,81.78
2019-06-26T01:59:57.534Z,82.27
2019-06-26T02:00:38.009Z,82.95
2019-06-26T02:01:18.504Z,82.56
2019-06-26T02:01:58.971Z,82.65
2019-06-26T02:02:39.481Z,84.6
2019-06-26T02:03:19.953Z,83.44
2019-06-26T02:04:00.453Z,84.5
2019-06-26T02:04:40.984Z,83.82
2019-06-26T02:05:21.441Z,82.85
2019-06-26T02:06:01.967Z,83.92
2019-06-26T02:07:22.944Z,83.82
2019-06-26T02:08:03.435Z,84.6
2019-06-26T02:08:43.916Z,84.21
2019-06-26T02:10:04.890Z,84.11
2019-06-26T02:10:45.366Z,84.01
2019-06-26T02:11:25.867Z,84.56
2019-06-26T02:12:06.351Z,84.5
2019-06-26T02:12:46.843Z,84.99
2019-06-26T02:13:27.341Z,85.08
2019-06-26T02:14:07.860Z,84.99
2019-06-26T02:14:48.331Z,85.38
2019-06-26T02:15:28.805Z,85.47
2019-06-26T02:16:09.304Z,84.85
2019-06-26T02:16:49.796Z,84.75
2019-06-26T02:17:30.296Z,84.56
2019-06-26T02:18:10.779Z,84.27
2019-06-26T02:18:51.275Z,85.04
2019-06-26T02:19:31.770Z,84.66
2019-06-26T02:20:12.270Z,84.07
2019-06-26T02:20:52.760Z,84.94
2019-06-26T02:21:33.262Z,85.72
2019-06-26T02:22:13.743Z,84.75
2019-06-26T02:22:54.243Z,85.14
2019-06-26T02:23:34.731Z,85.92
2019-06-26T02:24:55.717Z,85.14
2019-06-26T02:25:36.188Z,85.53
2019-06-26T02:26:16.698Z,85.14
2019-06-26T02:26:57.183Z,84.56
2019-06-26T02:27:37.648Z,84.85
2019-06-26T02:28:18.138Z,84.94
2019-06-26T02:28:58.618Z,84.94
2019-06-26T02:29:39.113Z,85.24
2019-06-26T02:30:19.605Z,85.24
2019-06-26T02:31:00.112Z,85.14
2019-06-26T02:32:21.103Z,85.43
2019-06-26T02:33:01.576Z,85.82
2019-06-26T02:33:42.078Z,86.3
2019-06-26T02:35:03.070Z,86.4
2019-06-26T02:35:43.567Z,87.66
2019-06-26T02:36:24.050Z,86.79
2019-06-26T02:37:04.509Z,87.66
2019-06-26T02:37:44.974Z,87.08
2019-06-26T02:38:25.468Z,87.08
2019-06-26T02:39:05.947Z,87.27
2019-06-26T02:39:46.421Z,86.99
2019-06-26T02:40:26.917Z,88.44
2019-06-26T02:41:07.403Z,87.86
2019-06-26T02:41:47.870Z,86.6
2019-06-26T02:42:28.370Z,87.52
2019-06-26T02:43:08.880Z,87.27
2019-06-26T02:43:49.355Z,88.15
2019-06-26T02:44:47.051Z,88.05
2019-06-26T02:45:10.350Z,88.05
2019-06-26T02:45:50.826Z,87.66
2019-06-26T02:46:31.327Z,87.96
2019-06-26T02:47:19.100Z,87.37
2019-06-26T02:47:52.316Z,87.47
2019-06-26T02:48:32.800Z,87.27
2019-06-26T02:49:53.800Z,87.04
2019-06-26T02:50:34.291Z,86.36
2019-06-26T02:51:14.788Z,86.46
2019-06-26T02:52:35.768Z,86.55
2019-06-26T02:53:16.263Z,87.33
2019-06-26T02:53:56.754Z,86.94
2019-06-26T02:54:37.232Z,87.47
2019-06-26T02:55:17.724Z,87.91
2019-06-26T02:55:58.220Z,87.96
2019-06-26T02:57:19.197Z,87.96
2019-06-26T02:57:59.675Z,89.17
2019-06-26T02:58:40.162Z,89.37
2019-06-26T03:00:01.139Z,89.56
2019-06-26T03:00:41.630Z,89.47
2019-06-26T03:01:22.099Z,89.95
2019-06-26T03:02:02.588Z,89.85
2019-06-26T03:02:43.105Z,90.24
2019-06-26T03:03:23.589Z,90.82
2019-06-26T03:04:04.072Z,91.02
2019-06-26T03:04:44.565Z,90.24
2019-06-26T03:05:25.054Z,89.17
2019-06-26T03:06:05.553Z,88.79
2019-06-26T03:06:46.025Z,88.59
2019-06-26T03:07:26.518Z,89.66
2019-06-26T03:08:07.023Z,88.79
2019-06-26T03:08:47.458Z,89.27
2019-06-26T03:09:27.947Z,89.37
2019-06-26T03:10:08.421Z,89.17
2019-06-26T03:10:48.900Z,89.47
2019-06-26T03:11:29.383Z,89.85
2019-06-26T03:12:09.851Z,90.05
2019-06-26T03:12:50.280Z,90.14
2019-06-26T03:13:30.759Z,90.73
2019-06-26T03:15:04.643Z,90.14
2019-06-26T03:15:32.207Z,91.02
2019-06-26T03:16:12.685Z,90.53
2019-06-26T03:17:33.682Z,90.53
2019-06-26T03:18:14.171Z,91.02
2019-06-26T03:18:54.677Z,91.02
2019-06-26T03:19:35.156Z,91.5
2019-06-26T03:20:15.645Z,91.41
2019-06-26T03:20:56.139Z,91.89
2019-06-26T03:21:36.626Z,91.41
2019-06-26T03:22:17.124Z,91.55
2019-06-26T03:22:57.604Z,92.04
2019-06-26T03:23:38.102Z,91.94
2019-06-26T03:24:18.598Z,92.52
2019-06-26T03:24:59.094Z,92.62
2019-06-26T03:25:39.589Z,92.04
2019-06-26T03:26:20.087Z,91.65
2019-06-26T03:27:00.578Z,90.88
2019-06-26T03:27:41.083Z,91.17
2019-06-26T03:28:21.545Z,91.75
2019-06-26T03:29:02.061Z,92.23
2019-06-26T03:29:42.537Z,91.65
2019-06-26T03:30:23.044Z,91.55
2019-06-26T03:31:03.527Z,92.04
2019-06-26T03:32:24.510Z,91.65
2019-06-26T03:33:04.982Z,91.46
2019-06-26T03:33:45.465Z,91.94
2019-06-26T03:34:25.954Z,91.55
2019-06-26T03:35:06.428Z,92.14
2019-06-26T03:35:46.922Z,92.23
2019-06-26T03:36:27.402Z,92.82
2019-06-26T03:37:07.902Z,92.33
2019-06-26T03:37:48.395Z,92.33
2019-06-26T03:38:28.892Z,92.62
2019-06-26T03:39:49.874Z,93.01
2019-06-26T03:40:30.367Z,92.91
2019-06-26T03:41:10.872Z,93.3
2019-06-26T03:42:31.866Z,92.33
2019-06-26T03:43:12.352Z,92.72
2019-06-26T03:43:52.824Z,92.91
2019-06-26T03:44:33.323Z,93.4
2019-06-26T03:45:24.907Z,93.3
2019-06-26T03:45:54.307Z,93.01
2019-06-26T03:46:34.801Z,93.49
2019-06-26T03:47:15.278Z,92.52
2019-06-26T03:47:55.766Z,92.72
2019-06-26T03:48:36.260Z,92.82
2019-06-26T03:49:16.767Z,93.2
2019-06-26T03:49:57.250Z,92.91
2019-06-26T03:50:37.731Z,92.43
2019-06-26T03:51:18.317Z,93.11
2019-06-26T03:51:58.686Z,94.07
2019-06-26T03:52:39.176Z,94.07
2019-06-26T03:53:19.674Z,93.98
2019-06-26T03:54:00.149Z,94.07
2019-06-26T03:54:40.630Z,94.07
2019-06-26T03:55:21.108Z,94.17
2019-06-26T03:56:01.587Z,94.07
2019-06-26T03:57:22.581Z,94.17
2019-06-26T03:58:03.043Z,94.17
2019-06-26T03:58:43.535Z,94.27
2019-06-26T04:00:04.509Z,93.79
2019-06-26T04:00:44.992Z,93.88
2019-06-26T04:01:25.489Z,94.27
2019-06-26T04:02:05.992Z,94.56
2019-06-26T04:02:46.486Z,94.17
2019-06-26T04:03:26.996Z,93.88
2019-06-26T04:04:07.491Z,93.4
2019-06-26T04:04:47.984Z,93.2
2019-06-26T04:05:28.473Z,93.11
2019-06-26T04:06:08.956Z,91.94
2019-06-26T04:06:49.452Z,92.43
2019-06-26T04:07:29.938Z,92.67
2019-06-26T04:08:10.405Z,92.43
2019-06-26T04:08:50.901Z,92.38
2019-06-26T04:09:31.366Z,91.41
2019-06-26T04:10:11.867Z,91.6
2019-06-26T04:10:52.359Z,91.89
2019-06-26T04:11:32.844Z,91.02
2019-06-26T04:12:13.309Z,91.21
2019-06-26T04:12:53.798Z,91.41
2019-06-26T04:13:34.258Z,90.92
2019-06-26T04:14:14.737Z,91.21
2019-06-26T04:14:55.215Z,90.34
2019-06-26T04:15:41.732Z,90.34
2019-06-26T04:16:16.159Z,90
2019-06-26T04:16:56.667Z,90
2019-06-26T04:17:37.154Z,89.41
2019-06-26T04:18:17.642Z,88.83
2019-06-26T04:20:30.327Z,88.39
2019-06-26T04:21:10.821Z,88.29
2019-06-26T04:21:51.299Z,87.61
2019-06-26T04:22:33.285Z,87.9
2019-06-26T04:23:49.985Z,87.12
2019-06-26T04:24:30.457Z,87.12
2019-06-26T04:25:11.092Z,86.64
2019-06-26T04:25:51.579Z,86.58
2019-06-26T04:26:32.064Z,86.54
2019-06-26T04:27:12.535Z,85.9
2019-06-26T04:27:53.039Z,85.42
2019-06-26T05:07:05.426Z,70.31
2019-06-26T05:07:45.901Z,70.01
2019-06-26T05:08:26.408Z,69.46
2019-06-26T05:09:06.927Z,69.56
2019-06-26T05:09:47.429Z,69.26
2019-06-26T05:10:27.955Z,68.39
2019-06-26T05:11:48.913Z,67.74
2019-06-26T05:12:29.452Z,67.54
2019-06-26T05:13:09.900Z,67.44
2019-06-26T05:13:50.494Z,67.44
2019-06-26T05:14:31.410Z,66.5
2019-06-26T05:15:11.878Z,66.02
2019-06-26T05:15:52.388Z,64.65
2019-06-26T05:16:32.912Z,64.29
2019-06-26T05:17:13.406Z,64.09
2019-06-26T05:17:53.902Z,63.6
2019-06-26T05:18:34.361Z,63.12
2019-06-26T05:19:14.871Z,62.95
2019-06-26T05:19:55.386Z,62.46
2019-06-26T05:20:35.799Z,62.16
2019-06-26T05:21:16.268Z,61.87
2019-06-26T05:21:56.824Z,61.51
2019-06-26T05:22:37.818Z,61.32
2019-06-26T05:23:18.590Z,61.22
2019-06-26T05:23:59.077Z,60.63
2019-06-26T05:24:39.548Z,60.53
2019-06-26T05:25:20.057Z,59.78
2019-06-26T05:26:00.573Z,59.39
2019-06-26T05:26:41.090Z,59
2019-06-26T05:27:21.594Z,58.51
2019-06-26T05:28:02.074Z,58.41
2019-06-26T05:28:42.572Z,58.51
2019-06-26T05:29:24.037Z,57.95
2019-06-26T05:32:26.684Z,57.92
2019-06-26T05:33:07.236Z,57.92
2019-06-26T05:33:47.671Z,57.82
2019-06-26T05:34:28.232Z,57.43
2019-06-26T05:35:08.658Z,57.07
2019-06-26T05:35:49.136Z,57.04
2019-06-26T05:39:36.065Z,56.68
2019-06-26T05:40:16.564Z,56.29
2019-06-26T05:40:57.065Z,55.92
2019-06-26T05:41:37.534Z,55.92
2019-06-26T05:42:58.559Z,55.14
2019-06-26T05:43:39.025Z,55.73
2019-06-26T05:44:19.512Z,55.43
2019-06-26T05:45:00.359Z,55.82
2019-06-26T05:45:40.511Z,55.24
2019-06-26T05:46:30.344Z,55.16
2019-06-26T05:47:01.489Z,54.77
2019-06-26T05:47:41.941Z,54.68
2019-06-26T05:48:22.436Z,54.68
2019-06-26T05:49:02.943Z,54.58
2019-06-26T05:49:43.420Z,54.48
2019-06-26T05:50:23.993Z,54.28
2019-06-26T05:51:04.493Z,54.58
2019-06-26T05:51:44.988Z,54.09
2019-06-26T05:52:25.478Z,53.8
2019-06-26T05:53:05.967Z,54.11
2019-06-26T05:53:46.453Z,54.02
2019-06-26T05:54:26.981Z,54.09
2019-06-26T05:55:07.476Z,53.53
2019-06-26T05:55:47.958Z,53.63
2019-06-26T05:56:28.463Z,53.45
2019-06-26T05:57:09.011Z,53.36
2019-06-26T05:57:49.497Z,52.86
2019-06-26T05:58:29.965Z,52.57
2019-06-26T05:59:11.880Z,52.37
2019-06-26T05:59:52.412Z,52.47
2019-06-26T06:01:13.351Z,52.59
2019-06-26T06:01:53.854Z,52.3
2019-06-26T06:02:35.130Z,52.01
2019-06-26T06:03:15.302Z,51.81
2019-06-26T06:03:55.793Z,51.81
2019-06-26T06:04:36.271Z,51.91
2019-06-26T06:05:16.825Z,51.81
2019-06-26T06:05:57.342Z,52.01
2019-06-26T06:06:41.913Z,52.03
2019-06-26T06:07:18.403Z,51.64
2019-06-26T06:07:59.387Z,51.45
2019-06-26T06:08:39.885Z,51.74
2019-06-26T06:10:01.368Z,50.95
2019-06-26T06:10:42.151Z,50.95
2019-06-26T06:11:22.819Z,50.85
2019-06-26T06:12:03.768Z,50.68
2019-06-26T06:12:44.068Z,50.39
2019-06-26T06:13:24.656Z,50.39
2019-06-26T06:14:05.149Z,50.19
2019-06-26T06:14:46.188Z,49.99
2019-06-26T06:15:26.806Z,49.99
2019-06-26T06:16:07.788Z,49.9
2019-06-26T06:16:48.249Z,49.8
2019-06-26T06:18:09.201Z,49.99
2019-06-26T06:18:49.637Z,50.39
2019-06-26T06:19:30.104Z,49.8
2019-06-26T06:20:51.177Z,50.39
2019-06-26T06:21:31.670Z,49.9
2019-06-26T06:22:12.143Z,49.99
2019-06-26T06:22:53.753Z,49.9
2019-06-26T06:23:33.420Z,49.73
2019-06-26T06:24:13.907Z,49.63
2019-06-26T06:24:54.393Z,49.92
2019-06-26T06:25:34.962Z,49.92
2019-06-26T06:26:15.399Z,49.63
2019-06-26T06:28:13.031Z,49.43
2019-06-26T06:28:53.598Z,49.33
2019-06-26T06:29:34.086Z,49.73
2019-06-26T06:30:14.527Z,49.33
2019-06-26T06:31:36.677Z,49.33
2019-06-26T06:32:17.660Z,49.04
2019-06-26T06:33:38.843Z,49.63
2019-06-26T06:34:19.835Z,49.63
2019-06-26T06:35:00.415Z,49.33
2019-06-26T06:35:41.255Z,49.23
2019-06-26T06:36:24.537Z,49.43
2019-06-26T06:37:48.636Z,49.43
2019-06-26T06:38:28.351Z,49.43
2019-06-26T06:39:08.989Z,49.9
2019-06-26T06:39:52.307Z,49.43
2019-06-26T06:40:33.194Z,49.04
2019-06-26T06:41:13.827Z,48.37
2019-06-26T06:41:54.494Z,47.98
2019-06-26T06:42:35.390Z,48.08
2019-06-26T06:43:15.979Z,47.88
2019-06-26T06:44:37.616Z,48.08
2019-06-26T06:45:18.290Z,47.88
2019-06-26T06:45:59.173Z,47.29
2019-06-26T06:46:39.886Z,47.31
2019-06-26T06:47:21.407Z,47
2019-06-26T06:48:02.425Z,46.7
2019-06-26T06:48:43.984Z,46.7
2019-06-26T06:50:05.383Z,46.9
2019-06-26T06:50:46.294Z,46.58
2019-06-26T06:51:27.847Z,46.8
2019-06-26T06:52:08.559Z,46.97
2019-06-26T06:52:49.722Z,47.76
2019-06-26T06:53:30.635Z,47.27
2019-06-26T06:54:11.217Z,47.36
2019-06-26T06:54:51.913Z,47.66
2019-06-26T07:00:29.946Z,46.78
2019-06-26T07:01:10.752Z,46.09
2019-06-26T07:01:50.992Z,46.09
2019-06-26T07:02:31.641Z,45.99
2019-06-26T07:03:12.176Z,45.97
2019-06-26T07:03:52.615Z,46.66
2019-06-26T07:04:33.803Z,45.99
2019-06-26T07:05:14.297Z,45.89
2019-06-26T07:05:54.788Z,45.99
2019-06-26T07:06:35.276Z,46.01
2019-06-26T07:07:15.753Z,45.81
2019-06-26T07:07:56.246Z,45.99
2019-06-26T07:08:38.399Z,45.99
2019-06-26T07:09:18.893Z,45.79
2019-06-26T07:09:59.370Z,45.99
2019-06-26T07:10:39.986Z,46.09
2019-06-26T07:11:20.423Z,45.79
2019-06-26T07:12:00.967Z,45.4
2019-06-26T07:12:42.271Z,45.6
2019-06-26T07:13:23.554Z,45.3
2019-06-26T07:14:04.058Z,45.13
2019-06-26T07:14:44.534Z,44.83
2019-06-26T07:15:25.775Z,45.23
2019-06-26T07:16:06.496Z,44.93
2019-06-26T07:16:46.745Z,45.03
2019-06-26T07:17:27.266Z,44.83
2019-06-26T07:18:07.776Z,44.17
2019-06-26T07:18:48.245Z,44.17
2019-06-26T07:19:28.712Z,44.36
2019-06-26T07:20:09.203Z,44.26
2019-06-26T07:20:49.679Z,44.36
2019-06-26T07:21:30.191Z,44.07
2019-06-26T07:22:10.716Z,43.99
2019-06-26T07:22:51.251Z,43.4
2019-06-26T07:23:32.556Z,43.3
2019-06-26T07:24:13.058Z,43.5
2019-06-26T07:24:53.550Z,42.71
2019-06-26T07:26:14.511Z,42.44
2019-06-26T07:26:55.019Z,42.24
2019-06-26T07:27:35.543Z,42.14
2019-06-26T07:28:16.061Z,42.04
2019-06-26T07:28:56.513Z,42.14
2019-06-26T07:29:40.967Z,42.54
2019-06-26T07:31:01.917Z,42.04
2019-06-26T07:31:43.300Z,41.94
2019-06-26T07:32:24.797Z,41.47
2019-06-26T07:33:05.466Z,41.47
2019-06-26T07:33:45.946Z,42.16
2019-06-26T07:34:27.058Z,41.57
2019-06-26T07:35:07.549Z,41.2
2019-06-26T07:35:48.061Z,41.2
2019-06-26T07:36:28.491Z,41
2019-06-26T07:37:09.032Z,41.09
2019-06-26T07:38:30.255Z,41.2
2019-06-26T07:39:10.838Z,40.9
2019-06-26T07:39:51.375Z,41.2
2019-06-26T07:41:12.398Z,41.39
2019-06-26T07:41:52.932Z,41.3
2019-06-26T07:42:34.314Z,41.3
2019-06-26T07:43:16.388Z,40.9
2019-06-26T07:43:54.994Z,41
2019-06-26T07:44:35.491Z,41
2019-06-26T07:45:16.001Z,40.9
2019-06-26T07:45:56.486Z,40.7
2019-06-26T07:46:36.968Z,40.8
2019-06-26T07:47:23.284Z,40.21
2019-06-26T07:48:40.441Z,40.11
2019-06-26T07:49:20.971Z,40.31
2019-06-26T07:50:02.232Z,40.21
2019-06-26T07:50:42.715Z,39.92
2019-06-26T07:51:23.229Z,39.84
2019-06-26T07:52:03.782Z,39.54
2019-06-26T07:52:44.193Z,39.73
2019-06-26T07:53:24.788Z,40.13
2019-06-26T07:54:05.228Z,40.43
2019-06-26T07:54:45.728Z,40.23
2019-06-26T07:55:26.295Z,40.33
2019-06-26T07:56:06.840Z,39.73
2019-06-26T07:56:47.370Z,39.46
2019-06-26T07:57:27.991Z,39.46
2019-06-26T07:58:08.450Z,39.34
2019-06-26T07:59:29.628Z,38.85
2019-06-26T08:00:10.115Z,39.15
2019-06-26T08:00:51.485Z,38.87
2019-06-26T08:01:33.006Z,38.47
2019-06-26T08:02:54.466Z,38.67
2019-06-26T08:03:35.754Z,38.08
2019-06-26T08:04:16.231Z,38.29
2019-06-26T08:04:57.816Z,37.9
2019-06-26T08:05:37.438Z,38
2019-06-26T08:06:21.268Z,38.2
2019-06-26T08:07:00.970Z,38.49
2019-06-26T08:07:41.531Z,38.59
2019-06-26T08:08:23.200Z,38.2
2019-06-26T08:09:03.934Z,38.59
2019-06-26T08:09:44.304Z,38.49
2019-06-26T08:10:24.876Z,38.81
2019-06-26T08:11:06.617Z,38.51
2019-06-26T08:11:45.911Z,38.71
2019-06-26T08:12:26.372Z,38.71
2019-06-26T08:15:58.503Z,38.23
2019-06-26T08:16:39.292Z,37.94
2019-06-26T08:17:19.877Z,38.23
2019-06-26T08:18:01.588Z,37.56
2019-06-26T08:18:41.438Z,37.76
2019-06-26T08:19:21.930Z,37.66
2019-06-26T08:20:02.469Z,37.07
2019-06-26T08:20:55.309Z,37.16
2019-06-26T08:21:23.463Z,36.69
2019-06-26T08:22:03.911Z,36.97
2019-06-26T08:22:44.398Z,36.77
2019-06-26T08:23:24.935Z,36.69
2019-06-26T08:24:06.293Z,36.59
2019-06-26T08:24:46.734Z,36.59
2019-06-26T08:25:27.266Z,36.39
2019-06-26T08:26:07.705Z,36.59
2019-06-26T08:26:48.172Z,36.98
2019-06-26T08:27:28.791Z,36.88
2019-06-26T08:28:09.240Z,36.98
2019-06-26T08:28:51.710Z,36.98
2019-06-26T08:29:35.226Z,37.08
2019-06-26T08:30:15.573Z,36.59
2019-06-26T08:30:56.444Z,36.59
2019-06-26T08:31:37.828Z,36.69
2019-06-26T08:32:18.017Z,36.49
2019-06-26T08:32:59.845Z,36.29
2019-06-26T08:33:42.750Z,36.88
2019-06-26T08:34:23.707Z,36.88
2019-06-26T08:35:03.980Z,36.79
2019-06-26T08:35:44.855Z,36.59
2019-06-26T08:36:25.244Z,36.41
2019-06-26T08:37:05.720Z,36.49
2019-06-26T08:37:46.189Z,36.98
2019-06-26T08:38:27.714Z,37.18
2019-06-26T08:39:08.179Z,36.88
2019-06-26T08:39:49.767Z,37.26
2019-06-26T08:40:30.377Z,37.76
2019-06-26T08:41:11.069Z,37.66
2019-06-26T08:41:53.008Z,37.48
2019-06-26T08:42:33.738Z,37.08
2019-06-26T08:43:16.755Z,36.98
2019-06-26T08:43:57.289Z,37.18
2019-06-26T08:44:40.495Z,37.08
2019-06-26T08:45:21.051Z,36.88
2019-06-26T08:46:43.756Z,36.8
2019-06-26T08:47:24.686Z,36.9
2019-06-26T08:48:17.168Z,36.8
2019-06-26T08:48:45.698Z,36.71
2019-06-26T08:49:26.708Z,36.31
2019-06-26T08:50:08.377Z,36.43
2019-06-26T08:50:50.429Z,36.13
2019-06-26T08:55:41.471Z,34.94
2019-06-26T08:56:22.112Z,35.24
2019-06-26T08:57:02.676Z,35.14
2019-06-26T08:57:43.240Z,35.16
2019-06-26T08:58:23.978Z,34.74
2019-06-26T08:59:04.416Z,34.76
2019-06-26T08:59:44.918Z,34.64
2019-06-26T09:00:25.411Z,34.95
2019-06-26T09:01:06.697Z,34.86
2019-06-26T09:02:28.913Z,34.56
2019-06-26T09:03:09.392Z,34.28
2019-06-26T09:03:49.862Z,34.86
2019-06-26T09:04:30.699Z,35.06
2019-06-26T09:05:11.364Z,34.58
2019-06-26T09:05:52.423Z,34.18
2019-06-26T09:06:33.179Z,34.08
2019-06-26T09:07:13.737Z,34.08
2019-06-26T09:07:54.187Z,33.98
2019-06-26T09:09:15.777Z,34.76
2019-06-26T09:09:56.252Z,34.56
2019-06-26T09:10:36.759Z,34.36
2019-06-26T09:11:17.354Z,34.78
2019-06-26T09:11:57.872Z,34.28
2019-06-26T09:12:38.411Z,34.58
2019-06-26T09:13:19.904Z,34.58
2019-06-26T09:14:02.394Z,34.58
2019-06-26T09:14:43.075Z,34.28
2019-06-26T09:15:24.594Z,33.9
2019-06-26T09:16:06.459Z,33.9
2019-06-26T09:16:48.420Z,33.7
2019-06-26T09:17:29.828Z,33.22
2019-06-26T09:18:10.332Z,33.7
2019-06-26T09:18:58.132Z,33.62
2019-06-26T09:19:41.880Z,33.72
2019-06-26T09:20:23.343Z,33.52
2019-06-26T09:21:04.011Z,32.93
2019-06-26T09:21:44.498Z,33.04
2019-06-26T09:22:25.066Z,33.04
2019-06-26T09:23:05.639Z,32.76
2019-06-26T09:23:46.227Z,32.75
2019-06-26T09:24:28.704Z,32.75
2019-06-26T09:25:21.348Z,32.84
2019-06-26T09:25:49.879Z,32.75
2019-06-26T09:26:34.627Z,32.54
2019-06-26T09:27:15.220Z,32.05
2019-06-26T09:28:00.025Z,32.15
2019-06-26T09:28:40.577Z,31.95
2019-06-26T09:29:23.741Z,31.96
2019-06-26T09:30:03.383Z,32.06
2019-06-26T09:30:43.922Z,32.64
2019-06-26T09:31:24.735Z,32.45
2019-06-26T09:32:05.286Z,32.84
2019-06-26T09:32:45.742Z,32.64
2019-06-26T09:33:26.307Z,32.94
2019-06-26T09:35:26.382Z,32.05
2019-06-26T09:36:09.998Z,32.15
2019-06-26T09:36:50.593Z,32.05
2019-06-26T09:37:31.289Z,32.24
2019-06-26T09:38:11.939Z,32.05
2019-06-26T09:38:52.263Z,31.96
2019-06-26T09:39:34.338Z,31.87
2019-06-26T09:40:15.055Z,31.87
2019-06-26T09:40:55.492Z,32.17
2019-06-26T09:41:38.087Z,31.87
2019-06-26T09:42:19.811Z,32.05
2019-06-26T09:43:01.057Z,32.24
2019-06-26T09:43:41.639Z,32.24
2019-06-26T09:44:22.243Z,32.05
2019-06-26T09:45:02.901Z,31.95
2019-06-26T09:45:45.682Z,32.15
2019-06-26T09:46:26.449Z,31.85
2019-06-26T09:47:07.475Z,31.77
2019-06-26T09:47:48.163Z,31.57
2019-06-26T09:48:28.984Z,31.67
2019-06-26T09:49:09.448Z,31.78
2019-06-26T09:49:52.783Z,31.96
2019-06-26T09:50:33.678Z,31.87
2019-06-26T09:51:14.196Z,31.78
2019-06-26T09:51:54.861Z,31.37
2019-06-26T09:52:36.876Z,31.37
2019-06-26T09:53:19.778Z,31.58
2019-06-26T09:54:00.295Z,31.48
2019-06-26T09:54:40.946Z,31.18
2019-06-26T09:55:23.442Z,30.89
2019-06-26T09:56:06.933Z,31.18
2019-06-26T09:56:49.448Z,31.09
2019-06-26T09:57:32.018Z,30.99
2019-06-26T09:58:13.668Z,30.8
2019-06-26T09:58:54.506Z,30.69
2019-06-26T09:59:35.677Z,30.59
2019-06-26T10:00:17.111Z,30.89
2019-06-26T10:00:57.935Z,30.68
2019-06-26T10:01:41.109Z,31.45
2019-06-26T10:02:22.680Z,31.65
2019-06-26T10:03:03.607Z,31.75
2019-06-26T10:03:45.195Z,31.65
2019-06-26T10:04:25.073Z,31.67
2019-06-26T10:05:06.178Z,31.77
2019-06-26T10:07:04.233Z,30.69
2019-06-26T10:07:45.927Z,30.51
2019-06-26T10:08:26.788Z,30.59
2019-06-26T10:09:07.591Z,30
2019-06-26T10:09:47.964Z,30.3
2019-06-26T10:10:28.624Z,30.11
2019-06-26T10:11:09.714Z,30.11
2019-06-26T10:11:52.104Z,29.91
2019-06-26T10:12:33.290Z,29.82
2019-06-26T10:13:54.234Z,29.82
2019-06-26T10:17:11.865Z,29.64
2019-06-26T10:17:56.331Z,29.64
2019-06-26T10:18:36.777Z,29.64
2019-06-26T10:19:21.262Z,29.54
2019-06-26T10:20:01.912Z,30.13
2019-06-26T10:20:42.303Z,29.72
2019-06-26T10:21:23.738Z,29.72
2019-06-26T10:22:07.397Z,29.63
2019-06-26T10:22:48.481Z,30.32
2019-06-26T10:23:28.991Z,29.82